Buckfastleigh, United Kingdom
Current Conditions -  °F | °C
As of 1:50 PM on Saturday 20 Dec 2014 (Local Time) from EGTE Reporting Station
Scattered Clouds Scattered Clouds  
Wind Chill: 45°   Ceiling: Unl
Heat Index: 48°   Visibility: 6mi
Dew Point: 41°   Wind: 8mph
Humidity: 76%   Direction: 280°W
Pressure: 30.42"   Gusts: NA
Location:  50.48°N, 3.78°W
Report Text: EGTE 201350Z 28007KT 9999 FEW028 SCT040 09/05 Q1030
Loading
Personal Weather Stations






























Interactive Weather Map New forecast layout! Learn more

10-Day Weather Forecast

Advertisements
Track Severe Weather on mobile